createdAt,value
2018-08-03T00:00:21.599Z,10.72
2018-08-03T00:02:50.633Z,11.20
2018-08-03T00:05:19.829Z,10.55
2018-08-03T00:07:49.024Z,10.43
2018-08-03T00:10:18.177Z,9.98
2018-08-03T00:12:47.383Z,10.13
2018-08-03T00:15:16.333Z,10.23
2018-08-03T00:17:45.486Z,10.63
2018-08-03T00:20:14.705Z,10.50
2018-08-03T00:22:43.848Z,11.10
2018-08-03T00:25:12.841Z,10.65
2018-08-03T00:27:41.988Z,10.32
2018-08-03T00:30:11.158Z,10.80
2018-08-03T00:32:40.347Z,10.48
2018-08-03T00:35:09.379Z,10.15
2018-08-03T00:37:38.565Z,10.80
2018-08-03T00:40:07.741Z,10.08
2018-08-03T00:42:36.905Z,10.20
2018-08-03T00:45:06.696Z,10.25
2018-08-03T00:47:36.041Z,10.82
2018-08-03T00:50:05.321Z,10.80
2018-08-03T00:52:34.739Z,10.98
2018-08-03T00:55:03.921Z,10.08
2018-08-03T00:57:33.259Z,10.32
2018-08-03T01:00:02.515Z,11.28
2018-08-03T01:02:31.746Z,11.18
2018-08-03T01:05:01.091Z,10.65
2018-08-03T01:07:30.372Z,10.80
2018-08-03T01:09:59.544Z,11.88
2018-08-03T01:12:28.890Z,11.18
2018-08-03T01:14:58.237Z,11.93
2018-08-03T01:17:27.436Z,11.93
2018-08-03T01:19:56.352Z,11.80
2018-08-03T01:22:25.468Z,11.75
2018-08-03T01:24:54.748Z,11.90
2018-08-03T01:27:23.871Z,11.65
2018-08-03T01:29:53.005Z,11.80
2018-08-03T01:32:22.113Z,11.38
2018-08-03T01:34:51.035Z,11.48
2018-08-03T01:37:20.173Z,11.33
2018-08-03T01:39:49.146Z,11.28
2018-08-03T01:42:18.265Z,11.60
2018-08-03T01:44:47.182Z,11.55
2018-08-03T01:47:16.329Z,12.13
2018-08-03T01:49:45.501Z,11.70
2018-08-03T01:52:14.710Z,11.93
2018-08-03T01:54:43.860Z,12.20
2018-08-03T01:57:12.777Z,12.43
2018-08-03T01:59:41.968Z,12.70
2018-08-03T02:02:11.127Z,13.48
2018-08-03T02:04:40.295Z,12.70
2018-08-03T02:07:09.471Z,12.40
2018-08-03T02:09:38.692Z,12.33
2018-08-03T02:12:08.002Z,12.30
2018-08-03T02:14:37.191Z,12.50
2018-08-03T02:17:06.358Z,12.37
2018-08-03T02:19:35.538Z,13.13
2018-08-03T02:22:04.656Z,12.37
2018-08-03T02:24:33.824Z,13.58
2018-08-03T02:27:02.708Z,13.38
2018-08-03T02:29:31.689Z,13.32
2018-08-03T02:32:00.705Z,13.58
2018-08-03T02:34:29.830Z,13.88
2018-08-03T02:36:58.977Z,14.05
2018-08-03T02:39:29.187Z,14.28
2018-08-03T02:41:58.359Z,15.20
2018-08-03T02:44:27.498Z,14.10
2018-08-03T02:46:56.636Z,14.83
2018-08-03T02:49:25.774Z,14.38
2018-08-03T02:51:54.748Z,14.45
2018-08-03T02:54:23.868Z,14.65
2018-08-03T02:56:52.826Z,14.57
2018-08-03T02:59:21.988Z,13.90
2018-08-03T03:01:54.049Z,14.40
2018-08-03T03:04:23.173Z,14.15
2018-08-03T03:06:52.352Z,14.80
2018-08-03T03:09:21.505Z,15.10
2018-08-03T03:11:50.408Z,14.43
2018-08-03T03:14:19.333Z,14.30
2018-08-03T03:16:48.486Z,14.10
2018-08-03T03:19:17.645Z,13.63
2018-08-03T03:21:46.777Z,14.57
2018-08-03T03:24:15.721Z,13.75
2018-08-03T03:26:45.026Z,14.38
2018-08-03T03:29:14.173Z,14.43
2018-08-03T03:31:43.201Z,13.43
2018-08-03T03:34:12.371Z,14.07
2018-08-03T03:36:41.338Z,13.87
2018-08-03T03:39:12.910Z,13.70
2018-08-03T03:41:42.037Z,13.72
2018-08-03T03:44:11.285Z,13.53
2018-08-03T03:46:40.444Z,14.07
2018-08-03T03:49:09.577Z,13.32
2018-08-03T03:51:38.737Z,13.90
2018-08-03T03:54:07.873Z,13.78
2018-08-03T03:56:37.024Z,13.15
2018-08-03T03:59:06.264Z,13.98
2018-08-03T04:01:35.417Z,13.37
2018-08-03T04:04:04.577Z,14.10
2018-08-03T04:06:33.567Z,13.18
2018-08-03T04:09:02.729Z,13.03
2018-08-03T04:11:31.873Z,12.90
2018-08-03T04:14:01.037Z,14.13
2018-08-03T04:16:30.192Z,13.45
2018-08-03T04:18:59.357Z,13.00
2018-08-03T04:21:28.275Z,13.47
2018-08-03T04:23:57.451Z,13.55
2018-08-03T04:26:26.369Z,13.73
2018-08-03T04:28:55.520Z,13.23
2018-08-03T04:31:24.685Z,13.33
2018-08-03T04:33:53.837Z,13.90
2018-08-03T04:36:22.965Z,13.37
2018-08-03T04:38:52.145Z,12.27
2018-08-03T04:41:21.273Z,12.18
2018-08-03T04:43:50.456Z,13.47
2018-08-03T04:46:19.631Z,12.60
2018-08-03T04:48:48.753Z,12.40
2018-08-03T04:51:17.903Z,11.80
2018-08-03T04:53:47.383Z,11.90
2018-08-03T04:56:16.514Z,13.15
2018-08-03T04:58:45.684Z,12.93
2018-08-03T05:01:14.840Z,12.00
2018-08-03T05:03:44.006Z,12.43
2018-08-03T05:06:13.169Z,12.53
2018-08-03T05:08:42.307Z,13.60
2018-08-03T05:11:11.493Z,13.53
2018-08-03T05:13:40.404Z,13.25
2018-08-03T05:16:09.700Z,13.78
2018-08-03T05:18:38.838Z,12.67
2018-08-03T05:21:08.395Z,13.53
2018-08-03T05:23:37.684Z,13.37
2018-08-03T05:26:06.907Z,13.25
2018-08-03T05:28:36.208Z,12.05
2018-08-03T05:31:05.526Z,12.80
2018-08-03T05:33:34.784Z,12.33
2018-08-03T05:36:04.072Z,13.48
2018-08-03T05:38:33.323Z,13.30
2018-08-03T05:41:02.633Z,12.88
2018-08-03T05:43:31.981Z,13.97
2018-08-03T05:46:01.408Z,14.10
2018-08-03T05:48:30.692Z,13.80
2018-08-03T05:51:00.015Z,14.63
2018-08-03T05:53:29.288Z,14.15
2018-08-03T05:55:58.624Z,14.33
2018-08-03T05:58:27.889Z,13.53
2018-08-03T06:00:57.158Z,14.20
2018-08-03T06:03:26.440Z,14.43
2018-08-03T06:05:56.237Z,13.68
2018-08-03T06:08:25.499Z,13.62
2018-08-03T06:10:54.756Z,13.75
2018-08-03T06:13:24.037Z,13.93
2018-08-03T06:15:53.396Z,14.13
2018-08-03T06:18:22.700Z,12.98
2018-08-03T06:20:51.947Z,13.85
2018-08-03T06:23:21.216Z,14.23
2018-08-03T06:25:50.443Z,14.83
2018-08-03T06:28:19.783Z,14.47
2018-08-03T06:30:48.949Z,14.28
2018-08-03T06:33:18.237Z,14.50
2018-08-03T06:35:47.473Z,14.65
2018-08-03T06:38:16.610Z,14.35
2018-08-03T06:40:45.880Z,13.58
2018-08-03T06:43:15.097Z,14.13
2018-08-03T06:45:44.268Z,14.90
2018-08-03T06:48:13.309Z,16.25
2018-08-03T06:50:42.640Z,16.52
2018-08-03T06:53:11.709Z,17.25
2018-08-03T06:55:41.006Z,15.60
2018-08-03T06:58:10.349Z,14.80
2018-08-03T07:00:39.475Z,14.90
2018-08-03T07:03:08.742Z,14.65
2018-08-03T07:05:37.778Z,13.62
2018-08-03T07:08:07.189Z,13.53
2018-08-03T07:10:36.546Z,14.73
2018-08-03T07:13:05.974Z,15.72
2018-08-03T07:15:35.292Z,15.63
2018-08-03T07:18:04.692Z,15.25
2018-08-03T07:20:34.124Z,14.70
2018-08-03T07:23:03.411Z,14.47
2018-08-03T07:25:32.775Z,17.05
2018-08-03T07:28:02.260Z,16.12
2018-08-03T07:30:31.632Z,17.50
2018-08-03T07:33:00.776Z,17.05
2018-08-03T07:35:30.169Z,14.38
2018-08-03T07:37:59.607Z,14.95
2018-08-03T07:40:28.916Z,18.75
2018-08-03T07:42:58.351Z,16.48
2018-08-03T07:45:27.601Z,14.50
2018-08-03T07:47:56.943Z,16.65
2018-08-03T07:50:26.383Z,15.23
2018-08-03T07:52:55.749Z,15.58
2018-08-03T07:55:25.191Z,16.02
2018-08-03T07:57:55.087Z,15.70
2018-08-03T08:00:24.464Z,28.67
2018-08-03T08:02:53.508Z,19.17
2018-08-03T08:05:22.859Z,15.58
2018-08-03T08:07:52.132Z,15.70
2018-08-03T08:10:21.500Z,13.08
2018-08-03T08:12:50.821Z,15.15
2018-08-03T08:15:20.230Z,15.95
2018-08-03T08:17:49.432Z,16.48
2018-08-03T08:20:18.793Z,15.38
2018-08-03T08:22:48.139Z,22.48
2018-08-03T08:25:17.452Z,18.10
2018-08-03T08:27:46.857Z,16.12
2018-08-03T08:30:16.028Z,16.02
2018-08-03T08:32:45.329Z,15.23
2018-08-03T08:35:14.678Z,15.83
2018-08-03T08:37:43.997Z,14.10
2018-08-03T08:40:13.473Z,14.70
2018-08-03T08:42:42.561Z,17.82
2018-08-03T08:45:11.680Z,17.95
2018-08-03T08:47:40.692Z,14.80
2018-08-03T08:50:10.340Z,15.78
2018-08-03T08:52:39.651Z,15.05
2018-08-03T08:55:08.976Z,15.88
2018-08-03T08:57:38.082Z,14.90
2018-08-03T09:00:08.306Z,15.20
2018-08-03T09:02:37.320Z,16.55
2018-08-03T09:05:06.645Z,21.33
2018-08-03T09:07:35.934Z,15.70
2018-08-03T09:10:04.985Z,15.55
2018-08-03T09:12:34.023Z,14.98
2018-08-03T09:15:03.329Z,15.20
2018-08-03T09:17:32.606Z,15.35
2018-08-03T09:20:01.897Z,18.42
2018-08-03T09:22:31.192Z,16.07
2018-08-03T09:25:00.536Z,15.68
2018-08-03T09:27:29.855Z,15.55
2018-08-03T09:29:59.171Z,15.65
2018-08-03T09:32:28.425Z,15.45
2018-08-03T09:34:57.727Z,17.35
2018-08-03T09:37:26.988Z,25.62
2018-08-03T09:39:56.552Z,16.30
2018-08-03T09:42:25.885Z,16.02
2018-08-03T09:44:55.228Z,16.73
2018-08-03T09:47:24.537Z,15.98
2018-08-03T09:49:54.074Z,16.32
2018-08-03T09:52:23.356Z,15.68
2018-08-03T09:54:52.692Z,14.80
2018-08-03T09:57:21.819Z,15.43
2018-08-03T09:59:51.198Z,15.45
2018-08-03T10:02:20.513Z,16.40
2018-08-03T10:04:49.859Z,16.73
2018-08-03T10:07:19.362Z,16.23
2018-08-03T10:09:48.678Z,16.07
2018-08-03T10:12:17.981Z,15.68
2018-08-03T10:14:47.378Z,22.58
2018-08-03T10:17:16.748Z,15.80
2018-08-03T10:19:46.168Z,16.67
2018-08-03T10:22:15.501Z,17.10
2018-08-03T10:24:44.546Z,15.72
2018-08-03T10:27:13.820Z,15.65
2018-08-03T10:29:43.099Z,18.50
2018-08-03T10:32:12.419Z,19.40
2018-08-03T10:34:41.667Z,16.40
2018-08-03T10:37:11.020Z,15.80
2018-08-03T10:39:40.344Z,15.93
2018-08-03T10:42:09.704Z,15.72
2018-08-03T10:44:38.999Z,16.05
2018-08-03T10:47:08.412Z,15.65
2018-08-03T10:49:37.751Z,16.07
2018-08-03T10:52:07.159Z,13.70
2018-08-03T10:54:36.483Z,13.45
2018-08-03T10:57:05.941Z,17.12
2018-08-03T10:59:35.250Z,15.00
2018-08-03T11:02:04.616Z,15.35
2018-08-03T11:04:34.118Z,13.55
2018-08-03T11:07:03.688Z,14.47
2018-08-03T11:09:33.002Z,15.60
2018-08-03T11:12:02.197Z,13.85
2018-08-03T11:14:31.565Z,13.80
2018-08-03T11:17:00.909Z,12.73
2018-08-03T11:19:29.917Z,13.30
2018-08-03T11:21:59.169Z,13.25
2018-08-03T11:24:28.569Z,13.58
2018-08-03T11:26:57.868Z,13.62
2018-08-03T11:29:27.095Z,12.75
2018-08-03T11:31:56.463Z,20.15
2018-08-03T11:34:26.105Z,14.50
2018-08-03T11:36:55.131Z,12.85
2018-08-03T11:39:24.425Z,13.03
2018-08-03T11:41:53.737Z,12.70
2018-08-03T11:44:23.139Z,13.70
2018-08-03T11:46:52.659Z,14.23
2018-08-03T11:49:22.070Z,13.40
2018-08-03T11:51:51.301Z,13.62
2018-08-03T11:54:20.547Z,13.03
2018-08-03T11:56:49.861Z,14.80
2018-08-03T11:59:19.169Z,23.65
2018-08-03T12:01:48.427Z,14.35
2018-08-03T12:04:17.719Z,12.33
2018-08-03T12:06:47.043Z,12.20
2018-08-03T12:09:16.305Z,13.18
2018-08-03T12:11:45.417Z,12.90
2018-08-03T12:14:14.582Z,14.07
2018-08-03T12:16:43.927Z,13.35
2018-08-03T12:19:13.193Z,13.10
2018-08-03T12:21:42.405Z,13.30
2018-08-03T12:24:11.524Z,12.68
2018-08-03T12:26:40.843Z,12.40
2018-08-03T12:29:10.238Z,21.93
2018-08-03T12:31:39.595Z,15.65
2018-08-03T12:34:09.307Z,11.53
2018-08-03T12:36:38.410Z,11.45
2018-08-03T12:39:09.988Z,11.20
2018-08-03T12:41:39.504Z,11.73
2018-08-03T12:44:08.852Z,12.23
2018-08-03T12:46:37.912Z,20.57
2018-08-03T12:49:07.236Z,13.13
2018-08-03T12:51:36.668Z,12.88
2018-08-03T12:54:05.786Z,12.30
2018-08-03T12:56:35.197Z,12.50
2018-08-03T12:59:04.572Z,13.35
2018-08-03T13:01:33.954Z,13.15
2018-08-03T13:04:03.043Z,25.82
2018-08-03T13:06:32.438Z,15.95
2018-08-03T13:09:01.510Z,13.30
2018-08-03T13:11:30.940Z,13.35
2018-08-03T13:14:00.081Z,12.73
2018-08-03T13:16:29.454Z,13.40
2018-08-03T13:18:58.607Z,13.40
2018-08-03T13:21:36.838Z,13.15
2018-08-03T13:24:06.261Z,12.93
2018-08-03T13:26:35.346Z,13.48
2018-08-03T13:29:04.535Z,12.90
2018-08-03T13:31:33.943Z,12.98
2018-08-03T13:34:03.346Z,13.25
2018-08-03T13:36:32.610Z,13.13
2018-08-03T13:39:02.038Z,12.68
2018-08-03T13:41:31.333Z,11.85
2018-08-03T13:44:00.737Z,12.53
2018-08-03T13:46:30.089Z,12.37
2018-08-03T13:48:59.421Z,12.30
2018-08-03T13:51:28.724Z,11.35
2018-08-03T13:53:58.051Z,11.05
2018-08-03T13:56:27.405Z,11.48
2018-08-03T13:58:56.832Z,11.83
2018-08-03T14:02:41.395Z,11.30
2018-08-03T14:05:12.435Z,10.18
2018-08-03T14:07:41.784Z,11.18
2018-08-03T14:10:11.344Z,10.68
2018-08-03T14:12:40.681Z,10.93
2018-08-03T14:15:09.757Z,13.93
2018-08-03T14:17:38.963Z,11.78
2018-08-03T14:20:09.425Z,11.03
2018-08-03T14:22:38.769Z,12.00
2018-08-03T14:25:08.152Z,10.78
2018-08-03T14:27:37.489Z,11.03
2018-08-03T14:30:07.637Z,11.43
2018-08-03T14:32:36.728Z,11.63
2018-08-03T14:35:05.800Z,11.63
2018-08-03T14:37:35.187Z,11.40
2018-08-03T14:40:04.603Z,12.18
2018-08-03T14:42:33.945Z,12.03
2018-08-03T14:45:03.258Z,11.10
2018-08-03T14:47:32.600Z,11.00
2018-08-03T14:50:02.012Z,11.33
2018-08-03T14:52:31.307Z,11.80
2018-08-03T14:55:00.615Z,11.35
2018-08-03T14:57:29.930Z,11.53
2018-08-03T14:59:59.423Z,11.20
2018-08-03T15:02:28.467Z,12.55
2018-08-03T15:04:57.889Z,10.75
2018-08-03T15:07:27.236Z,11.93
2018-08-03T15:09:56.507Z,11.12
2018-08-03T15:12:25.848Z,10.88
2018-08-03T15:14:55.270Z,11.83
2018-08-03T15:17:24.616Z,11.15
2018-08-03T15:19:53.852Z,10.32
2018-08-03T15:22:23.274Z,11.28
2018-08-03T15:24:52.858Z,10.38
2018-08-03T15:27:22.181Z,10.63
2018-08-03T15:29:51.508Z,10.63
2018-08-03T15:32:20.996Z,10.90
2018-08-03T15:34:50.293Z,10.72
2018-08-03T15:37:19.729Z,10.40
2018-08-03T15:39:49.356Z,10.40
2018-08-03T15:42:18.806Z,10.80
2018-08-03T15:44:48.259Z,10.00
2018-08-03T15:47:17.662Z,9.58
2018-08-03T15:49:47.067Z,9.10
2018-08-03T15:52:16.408Z,9.30
2018-08-03T15:54:45.869Z,9.55
2018-08-03T15:57:15.089Z,9.80
2018-08-03T15:59:44.452Z,10.88
2018-08-03T16:02:13.854Z,10.60
2018-08-03T16:04:43.242Z,10.18
2018-08-03T16:07:12.650Z,10.63
2018-08-03T16:09:42.039Z,10.93
2018-08-03T16:12:11.354Z,10.45
2018-08-03T16:14:40.557Z,10.13
2018-08-03T16:17:09.858Z,10.65
2018-08-03T16:19:39.172Z,10.20
2018-08-03T16:22:08.358Z,10.38
2018-08-03T16:24:37.597Z,10.48
2018-08-03T16:27:06.750Z,9.50
2018-08-03T16:29:35.824Z,10.05
2018-08-03T16:32:05.293Z,10.32
2018-08-03T16:34:34.940Z,9.43
2018-08-03T16:37:04.325Z,10.23
2018-08-03T16:39:33.501Z,10.13
2018-08-03T16:42:02.939Z,11.12
2018-08-03T16:44:32.097Z,10.63
2018-08-03T16:47:01.529Z,10.65
2018-08-03T16:49:30.954Z,10.53
2018-08-03T16:52:00.248Z,10.18
2018-08-03T16:54:29.624Z,10.55
2018-08-03T16:56:59.093Z,10.43
2018-08-03T16:59:28.503Z,10.48
2018-08-03T17:01:57.894Z,10.45
2018-08-03T17:04:27.539Z,10.82
2018-08-03T17:06:56.920Z,11.68
2018-08-03T17:09:26.259Z,10.70
2018-08-03T17:11:55.600Z,10.72
2018-08-03T17:14:24.636Z,11.33
2018-08-03T17:16:53.995Z,10.95
2018-08-03T17:19:23.110Z,11.05
2018-08-03T17:21:52.458Z,11.20
2018-08-03T17:24:22.144Z,9.88
2018-08-03T17:26:51.484Z,11.38
2018-08-03T17:29:20.905Z,11.15
2018-08-03T17:31:50.278Z,10.30
2018-08-03T17:34:19.658Z,10.95
2018-08-03T17:36:49.097Z,11.30
2018-08-03T17:39:18.431Z,10.88
2018-08-03T17:41:47.819Z,11.75
2018-08-03T17:44:17.368Z,10.58
2018-08-03T17:46:46.688Z,12.40
2018-08-03T18:09:03.758Z,11.83
2018-08-03T18:11:32.980Z,11.12
2018-08-03T18:14:02.156Z,11.12
2018-08-03T18:16:31.341Z,10.63
2018-08-03T18:19:00.838Z,11.05
2018-08-03T18:21:30.049Z,11.25
2018-08-03T18:23:59.229Z,11.40
2018-08-03T18:26:28.416Z,11.30
2018-08-03T18:28:57.956Z,10.90
2018-08-03T18:31:27.105Z,10.28
2018-08-03T18:33:56.276Z,11.33
2018-08-03T18:36:25.467Z,10.98
2018-08-03T18:38:54.670Z,11.30
2018-08-03T18:41:23.837Z,11.33
2018-08-03T18:43:53.129Z,11.48
2018-08-03T18:46:22.645Z,11.70
2018-08-03T18:48:51.908Z,11.43
2018-08-03T18:51:21.336Z,11.63
2018-08-03T18:53:50.512Z,11.90
2018-08-03T18:56:19.686Z,12.28
2018-08-03T18:58:48.881Z,11.68
2018-08-03T19:01:18.077Z,12.80
2018-08-03T19:03:47.255Z,11.65
2018-08-03T19:06:16.584Z,12.07
2018-08-03T19:08:45.754Z,12.20
2018-08-03T19:11:14.921Z,11.78
2018-08-03T19:13:43.949Z,12.65
2018-08-03T19:16:13.133Z,12.75
2018-08-03T19:18:42.325Z,12.58
2018-08-03T19:21:11.496Z,12.58
2018-08-03T19:23:40.945Z,12.82
2018-08-03T19:26:10.461Z,12.65
2018-08-03T19:28:39.895Z,12.93
2018-08-03T19:31:09.066Z,12.68
2018-08-03T19:33:38.517Z,13.90
2018-08-03T19:36:07.789Z,13.22
2018-08-03T19:38:37.102Z,12.73
2018-08-03T19:41:06.425Z,12.65
2018-08-03T19:43:35.873Z,13.08
2018-08-03T19:46:05.323Z,13.43
2018-08-03T19:48:34.537Z,12.95
2018-08-03T19:51:03.741Z,13.03
2018-08-03T19:53:32.945Z,13.88
2018-08-03T19:56:02.149Z,13.98
2018-08-03T19:58:31.432Z,13.00
2018-08-03T20:01:00.673Z,13.75
2018-08-03T20:03:30.000Z,12.80
2018-08-03T20:05:59.418Z,13.60
2018-08-03T20:08:28.641Z,13.90
2018-08-03T20:10:57.933Z,13.18
2018-08-03T20:13:27.142Z,13.78
2018-08-03T20:15:56.301Z,13.32
2018-08-03T20:18:25.356Z,13.75
2018-08-03T20:20:54.648Z,12.95
2018-08-03T20:23:23.904Z,13.90
2018-08-03T20:25:53.141Z,13.32
2018-08-03T20:28:22.596Z,13.93
2018-08-03T20:30:51.576Z,13.85
2018-08-03T20:33:20.741Z,13.38
2018-08-03T20:35:50.077Z,14.18
2018-08-03T20:38:19.259Z,13.88
2018-08-03T20:40:48.425Z,12.73
2018-08-03T20:43:17.597Z,13.60
2018-08-03T20:45:46.837Z,14.55
2018-08-03T20:48:16.121Z,14.18
2018-08-03T20:50:45.353Z,15.15
2018-08-03T20:53:14.527Z,14.73
2018-08-03T20:55:43.809Z,14.53
2018-08-03T20:58:13.042Z,14.80
2018-08-03T21:00:42.237Z,14.35
2018-08-03T21:03:11.460Z,13.93
2018-08-03T21:05:40.694Z,13.40
2018-08-03T21:08:09.893Z,14.07
2018-08-03T21:10:39.121Z,14.35
2018-08-03T21:13:08.445Z,14.03
2018-08-03T21:15:37.777Z,13.88
2018-08-03T21:18:07.003Z,13.38
2018-08-03T21:20:36.244Z,14.30
2018-08-03T21:23:05.572Z,13.98
2018-08-03T21:25:34.781Z,14.55
2018-08-03T21:28:03.944Z,13.48
2018-08-03T21:30:33.154Z,13.03
2018-08-03T21:33:02.324Z,13.65
2018-08-03T21:35:31.501Z,13.85
2018-08-03T21:38:00.670Z,15.08
2018-08-03T21:40:29.828Z,17.27
2018-08-03T21:42:59.000Z,16.37
2018-08-03T21:45:28.160Z,16.97
2018-08-03T21:47:57.334Z,14.63
2018-08-03T21:50:26.500Z,15.08
2018-08-03T21:52:55.749Z,14.60
2018-08-03T21:55:24.839Z,13.35
2018-08-03T21:57:54.061Z,13.48
2018-08-03T22:00:23.796Z,13.10
2018-08-03T22:02:52.952Z,12.55
2018-08-03T22:05:22.135Z,13.25
2018-08-03T22:07:51.293Z,13.20
2018-08-03T22:10:20.465Z,12.68
2018-08-03T22:12:49.648Z,12.73
2018-08-03T22:15:18.805Z,12.60
2018-08-03T22:17:47.969Z,13.10
2018-08-03T22:20:17.161Z,12.53
2018-08-03T22:22:47.272Z,12.20
2018-08-03T22:25:16.462Z,13.18
2018-08-03T22:27:45.620Z,13.70
2018-08-03T22:30:14.789Z,12.98
2018-08-03T22:32:43.999Z,13.45
2018-08-03T22:35:13.113Z,13.03
2018-08-03T22:37:42.288Z,13.50
2018-08-03T22:40:11.224Z,13.20
2018-08-03T22:42:40.377Z,13.13
2018-08-03T22:45:09.577Z,14.13
2018-08-03T22:47:38.749Z,13.90
2018-08-03T22:50:07.924Z,14.75
2018-08-03T22:52:37.096Z,13.32
2018-08-03T22:55:06.305Z,13.03
2018-08-03T22:57:35.461Z,14.05
2018-08-03T23:00:05.416Z,13.85
2018-08-03T23:02:34.577Z,14.47
2018-08-03T23:05:03.774Z,13.43
2018-08-03T23:07:32.977Z,13.62
2018-08-03T23:10:01.901Z,14.18
2018-08-03T23:12:31.097Z,13.38
2018-08-03T23:15:00.258Z,14.25
2018-08-03T23:17:29.493Z,14.40
2018-08-03T23:19:58.649Z,13.80
2018-08-03T23:22:27.808Z,14.75
2018-08-03T23:24:56.970Z,14.15
2018-08-03T23:27:26.150Z,14.07
2018-08-03T23:29:55.321Z,15.65
2018-08-03T23:32:24.472Z,14.70
2018-08-03T23:34:53.644Z,15.28
2018-08-03T23:37:22.826Z,14.83
2018-08-03T23:39:51.992Z,14.75
2018-08-03T23:42:21.152Z,14.80
2018-08-03T23:44:50.337Z,14.80
2018-08-03T23:47:20.197Z,14.87
2018-08-03T23:49:49.359Z,14.80
2018-08-03T23:52:18.540Z,14.98
2018-08-03T23:54:47.753Z,14.98
2018-08-03T23:57:16.936Z,14.93
2018-08-03T23:59:46.120Z,15.13
